createdAt,value
2023-04-24T00:02:25.461Z,89.56
2023-04-24T00:04:52.569Z,88.83
2023-04-24T00:07:21.160Z,91.65
2023-04-24T00:09:48.218Z,93.65
2023-04-24T00:12:43.778Z,93.98
2023-04-24T00:15:30.863Z,95.63
2023-04-24T00:18:26.942Z,95.53
2023-04-24T00:21:31.675Z,93.06
2023-04-24T00:24:13.837Z,91.54
2023-04-24T00:26:42.790Z,93.89
2023-04-24T00:29:09.901Z,100.00
2023-04-24T00:31:36.763Z,100.00
2023-04-24T00:34:04.569Z,100.00
2023-04-24T00:36:31.953Z,100.00
2023-04-24T00:38:58.733Z,100.00
2023-04-24T00:41:28.773Z,100.00
2023-04-24T00:43:56.068Z,100.00
2023-04-24T00:46:23.058Z,100.00
2023-04-24T00:48:50.401Z,100.00
2023-04-24T00:51:17.174Z,100.00
2023-04-24T00:53:44.022Z,100.00
2023-04-24T00:56:11.262Z,100.00
2023-04-24T00:58:38.277Z,100.00
2023-04-24T01:01:08.093Z,100.00
2023-04-24T01:03:38.320Z,100.00
2023-04-24T01:06:06.768Z,100.00
2023-04-24T01:08:35.871Z,100.00
2023-04-24T01:11:04.959Z,100.00
2023-04-24T01:13:33.217Z,100.00
2023-04-24T01:16:00.541Z,100.00
2023-04-24T01:18:28.829Z,100.00
2023-04-24T01:20:59.096Z,100.00
2023-04-24T01:23:26.505Z,100.00
2023-04-24T01:25:53.610Z,100.00
2023-04-24T01:28:20.895Z,100.00
2023-04-24T01:30:47.825Z,100.00
2023-04-24T01:33:15.072Z,100.00
2023-04-24T01:35:41.935Z,100.00
2023-04-24T01:38:08.535Z,100.00
2023-04-24T01:40:36.189Z,100.00
2023-04-24T01:43:03.688Z,100.00
2023-04-24T01:45:31.902Z,100.00
2023-04-24T01:47:58.923Z,100.00
2023-04-24T01:50:26.296Z,100.00
2023-04-24T01:52:53.290Z,100.00
2023-04-24T01:55:20.198Z,100.00
2023-04-24T01:57:47.488Z,100.00
2023-04-24T02:00:16.269Z,100.00
2023-04-24T02:02:47.327Z,100.00
2023-04-24T02:05:15.262Z,100.00
2023-04-24T02:07:42.088Z,100.00
2023-04-24T02:10:11.361Z,100.00
2023-04-24T02:12:38.859Z,100.00
2023-04-24T02:15:06.421Z,100.00
2023-04-24T02:17:33.169Z,100.00
2023-04-24T02:19:59.948Z,100.00
2023-04-24T02:22:27.660Z,100.00
2023-04-24T02:24:55.429Z,100.00
2023-04-24T02:27:22.345Z,100.00
2023-04-24T02:29:49.428Z,100.00
2023-04-24T02:32:16.824Z,100.00
2023-04-24T02:34:43.715Z,100.00
2023-04-24T02:37:11.147Z,100.00
2023-04-24T02:39:38.317Z,100.00
2023-04-24T02:42:05.122Z,100.00
2023-04-24T02:44:34.868Z,100.00
2023-04-24T02:47:01.647Z,100.00
2023-04-24T02:49:28.640Z,100.00
2023-04-24T02:51:55.294Z,100.00
2023-04-24T02:54:22.092Z,100.00
2023-04-24T02:56:48.749Z,100.00
2023-04-24T02:59:15.625Z,100.00
2023-04-24T03:01:42.369Z,100.00
2023-04-24T03:04:09.359Z,100.00
2023-04-24T03:06:36.553Z,100.00
2023-04-24T03:09:04.740Z,100.00
2023-04-24T03:11:31.919Z,100.00
2023-04-24T03:14:20.811Z,100.00
2023-04-24T03:20:23.421Z,100.00
2023-04-24T03:22:50.870Z,100.00
2023-04-24T03:25:18.044Z,100.00
2023-04-24T03:27:47.032Z,100.00
2023-04-24T03:30:18.034Z,100.00
2023-04-24T03:32:45.056Z,100.00
2023-04-24T03:35:15.360Z,100.00
2023-04-24T03:37:42.078Z,100.00
2023-04-24T03:40:09.513Z,100.00
2023-04-24T03:42:37.994Z,100.00
2023-04-24T03:45:06.837Z,100.00
2023-04-24T03:47:33.976Z,100.00
2023-04-24T03:50:00.708Z,100.00
2023-04-24T03:52:27.774Z,100.00
2023-04-24T03:54:54.480Z,100.00
2023-04-24T03:57:24.227Z,100.00
2023-04-24T03:59:50.905Z,100.00
2023-04-24T04:02:49.196Z,100.00
2023-04-24T04:05:16.988Z,100.00
2023-04-24T04:07:49.215Z,100.00
2023-04-24T04:10:21.078Z,100.00
2023-04-24T04:12:48.010Z,100.00
2023-04-24T04:15:14.952Z,100.00
2023-04-24T04:17:41.887Z,100.00
2023-04-24T04:20:11.203Z,100.00
2023-04-24T04:22:38.683Z,100.00
2023-04-24T04:25:09.154Z,100.00
2023-04-24T04:27:39.712Z,100.00
2023-04-24T04:30:08.323Z,100.00
2023-04-24T04:32:38.711Z,100.00
2023-04-24T04:35:14.640Z,100.00
2023-04-24T04:37:41.833Z,100.00
2023-04-24T04:40:13.240Z,100.00
2023-04-24T04:42:41.546Z,100.00
2023-04-24T04:45:16.786Z,100.00
2023-04-24T04:47:43.833Z,100.00
2023-04-24T04:50:11.631Z,99.56
2023-04-24T04:52:42.529Z,97.08
2023-04-24T04:55:10.786Z,97.42
2023-04-24T04:57:44.008Z,94.33
2023-04-24T05:00:15.767Z,91.56
2023-04-24T05:02:43.653Z,90.74
2023-04-24T05:05:11.002Z,88.28
2023-04-24T05:07:38.132Z,85.11
2023-04-24T05:10:05.760Z,86.11
2023-04-24T05:12:32.571Z,83.64
2023-04-24T05:14:59.309Z,89.09
2023-04-24T05:17:27.099Z,89.23
2023-04-24T05:19:53.922Z,87.32
2023-04-24T05:22:22.162Z,96.54
2023-04-24T05:24:49.180Z,92.31
2023-04-24T05:27:16.743Z,88.79
2023-04-24T05:29:43.642Z,88.30
2023-04-24T05:32:10.890Z,92.50
2023-04-24T05:34:38.130Z,88.97
2023-04-24T05:37:09.166Z,84.67
2023-04-24T05:39:36.981Z,84.70
2023-04-24T05:42:05.558Z,82.06
2023-04-24T05:44:32.438Z,79.06
2023-04-24T05:46:59.392Z,82.04
2023-04-24T05:49:26.355Z,80.07
2023-04-24T05:51:53.624Z,68.99
2023-04-24T05:54:20.817Z,65.18
2023-04-24T05:56:47.651Z,63.16
2023-04-24T05:59:14.612Z,60.97
2023-04-24T06:01:41.958Z,59.97
2023-04-24T06:04:08.994Z,56.57
2023-04-24T06:06:37.024Z,54.29
2023-04-24T06:09:04.265Z,54.88
2023-04-24T06:11:31.239Z,53.98
2023-04-24T06:13:57.897Z,53.85
2023-04-24T06:16:24.617Z,51.94
2023-04-24T06:18:51.929Z,51.46
2023-04-24T06:21:19.165Z,51.38
2023-04-24T06:23:47.530Z,52.09
2023-04-24T06:26:14.509Z,52.75
2023-04-24T06:28:41.233Z,53.60
2023-04-24T06:31:08.235Z,53.42
2023-04-24T06:33:35.088Z,54.52
2023-04-24T06:36:02.661Z,55.69
2023-04-24T06:38:30.893Z,55.33
2023-04-24T06:40:57.656Z,54.77
2023-04-24T06:43:24.584Z,53.18
2023-04-24T06:45:51.676Z,52.30
2023-04-24T06:48:18.632Z,51.65
2023-04-24T06:50:45.304Z,51.19
2023-04-24T06:53:13.823Z,52.72
2023-04-24T06:55:40.544Z,52.63
2023-04-24T06:58:07.535Z,51.70
2023-04-24T07:00:34.289Z,51.94
2023-04-24T07:03:02.102Z,51.20
2023-04-24T07:05:29.313Z,51.33
2023-04-24T07:07:56.248Z,52.15
2023-04-24T07:10:23.034Z,51.80
2023-04-24T07:12:50.237Z,51.85
2023-04-24T07:15:17.395Z,52.00
2023-04-24T07:17:45.449Z,51.65
2023-04-24T07:20:12.933Z,51.93
2023-04-24T07:22:40.043Z,51.69
2023-04-24T07:25:07.524Z,51.47
2023-04-24T07:27:35.199Z,51.48
2023-04-24T07:30:04.598Z,51.09
2023-04-24T07:32:31.779Z,50.48
2023-04-24T07:34:58.500Z,51.29
2023-04-24T07:37:25.450Z,51.05
2023-04-24T07:39:52.485Z,52.58
2023-04-24T07:42:19.956Z,52.65
2023-04-24T07:44:48.619Z,52.56
2023-04-24T07:47:16.984Z,51.85
2023-04-24T07:49:44.305Z,51.50
2023-04-24T07:52:11.441Z,50.60
2023-04-24T07:54:38.578Z,50.55
2023-04-24T07:57:06.495Z,49.82
2023-04-24T07:59:33.405Z,49.54
2023-04-24T08:02:01.942Z,49.33
2023-04-24T08:04:29.169Z,48.91
2023-04-24T08:06:56.303Z,48.96
2023-04-24T08:09:23.776Z,49.31
2023-04-24T08:11:51.877Z,49.12
2023-04-24T08:14:18.782Z,49.58
2023-04-24T08:16:46.769Z,50.43
2023-04-24T08:19:13.663Z,49.63
2023-04-24T08:21:41.307Z,49.21
2023-04-24T08:24:09.323Z,49.49
2023-04-24T08:26:36.463Z,48.73
2023-04-24T08:29:03.581Z,49.04
2023-04-24T08:31:31.137Z,48.94
2023-04-24T08:33:57.960Z,49.63
2023-04-24T08:36:33.030Z,50.60
2023-04-24T08:39:10.025Z,50.25
2023-04-24T08:41:38.964Z,48.36
2023-04-24T08:44:06.547Z,48.39
2023-04-24T08:46:34.801Z,47.97
2023-04-24T08:49:02.185Z,48.61
2023-04-24T08:51:31.576Z,49.04
2023-04-24T08:53:58.948Z,47.77
2023-04-24T08:56:26.091Z,47.29
2023-04-24T08:58:55.076Z,47.61
2023-04-24T09:01:22.226Z,48.20
2023-04-24T09:03:54.529Z,47.60
2023-04-24T09:06:22.985Z,47.11
2023-04-24T09:08:52.309Z,46.53
2023-04-24T09:11:19.321Z,46.97
2023-04-24T09:13:46.818Z,47.14
2023-04-24T09:16:15.529Z,46.89
2023-04-24T09:18:42.510Z,47.74
2023-04-24T09:21:10.561Z,46.69
2023-04-24T09:23:37.449Z,47.00
2023-04-24T09:26:07.963Z,47.50
2023-04-24T09:28:40.813Z,47.02
2023-04-24T09:31:15.863Z,46.23
2023-04-24T09:34:01.574Z,45.90
2023-04-24T09:36:39.543Z,45.39
2023-04-24T09:39:17.048Z,44.72
2023-04-24T09:41:50.982Z,44.00
2023-04-24T09:44:22.926Z,44.38
2023-04-24T09:46:54.190Z,43.13
2023-04-24T09:49:31.182Z,43.17
2023-04-24T09:52:09.376Z,43.68
2023-04-24T09:54:38.288Z,43.36
2023-04-24T09:57:05.660Z,42.61
2023-04-24T09:59:32.479Z,42.51
2023-04-24T10:02:00.727Z,45.29
2023-04-24T10:04:29.343Z,44.40
2023-04-24T10:06:57.846Z,42.03
2023-04-24T10:09:27.602Z,43.20
2023-04-24T10:11:55.956Z,41.35
2023-04-24T10:14:26.868Z,40.31
2023-04-24T10:16:55.765Z,40.41
2023-04-24T10:19:23.976Z,40.68
2023-04-24T10:21:51.156Z,39.70
2023-04-24T10:24:19.514Z,40.17
2023-04-24T10:26:49.079Z,40.07
2023-04-24T10:29:17.704Z,39.93
2023-04-24T10:31:48.183Z,39.41
2023-04-24T10:34:18.797Z,39.55
2023-04-24T10:36:57.782Z,39.07
2023-04-24T10:39:27.880Z,39.74
2023-04-24T10:41:58.602Z,38.92
2023-04-24T10:44:25.850Z,38.62
2023-04-24T10:46:57.155Z,38.48
2023-04-24T10:49:32.062Z,39.44
2023-04-24T10:52:06.615Z,39.96
2023-04-24T10:54:43.105Z,40.38
2023-04-24T10:57:22.962Z,40.84
2023-04-24T10:59:51.866Z,40.50
2023-04-24T11:02:19.937Z,40.29
2023-04-24T11:04:47.625Z,40.16
2023-04-24T11:07:14.687Z,39.94
2023-04-24T11:09:44.223Z,41.38
2023-04-24T11:12:15.033Z,40.80
2023-04-24T11:14:57.625Z,40.89
2023-04-24T11:17:38.758Z,44.30
2023-04-24T11:22:56.280Z,65.22
2023-04-24T11:25:26.850Z,65.93
2023-04-24T11:28:05.915Z,65.29
2023-04-24T11:30:34.677Z,63.32
2023-04-24T11:33:06.138Z,57.83
2023-04-24T11:35:38.776Z,57.34
2023-04-24T11:40:36.458Z,55.72
2023-04-24T11:43:07.761Z,53.80
2023-04-24T11:45:34.801Z,48.41
2023-04-24T11:48:01.749Z,48.13
2023-04-24T11:50:28.952Z,50.25
2023-04-24T11:52:56.793Z,51.28
2023-04-24T11:55:27.961Z,50.17
2023-04-24T11:57:58.255Z,48.63
2023-04-24T12:00:35.413Z,48.94
2023-04-24T12:03:13.219Z,47.95
2023-04-24T12:05:41.052Z,47.06
2023-04-24T12:08:08.162Z,46.96
2023-04-24T12:10:36.234Z,48.57
2023-04-24T12:13:03.262Z,46.07
2023-04-24T12:15:30.306Z,45.85
2023-04-24T12:17:57.713Z,46.85
2023-04-24T12:20:32.812Z,48.64
2023-04-24T12:23:01.406Z,49.08
2023-04-24T12:25:33.330Z,48.01
2023-04-24T12:28:06.746Z,48.73
2023-04-24T12:30:36.380Z,48.00
2023-04-24T12:33:04.000Z,46.42
2023-04-24T12:35:32.998Z,47.04
2023-04-24T12:38:11.145Z,45.99
2023-04-24T12:40:42.485Z,46.01
2023-04-24T12:43:20.483Z,46.64
2023-04-24T12:45:49.283Z,46.84
2023-04-24T12:48:16.302Z,45.49
2023-04-24T12:50:46.025Z,46.40
2023-04-24T12:53:14.200Z,45.65
2023-04-24T12:55:41.338Z,44.75
2023-04-24T12:58:08.573Z,43.65
2023-04-24T13:00:35.453Z,44.24
2023-04-24T13:03:02.628Z,42.32
2023-04-24T13:05:29.621Z,43.70
2023-04-24T13:07:56.861Z,43.21
2023-04-24T13:10:23.584Z,43.66
2023-04-24T13:12:50.675Z,43.03
2023-04-24T13:15:17.496Z,41.20
2023-04-24T13:17:44.464Z,40.88
2023-04-24T13:20:11.504Z,40.18
2023-04-24T13:22:38.684Z,39.66
2023-04-24T13:25:07.129Z,39.51
2023-04-24T13:27:33.882Z,38.15
2023-04-24T13:30:00.880Z,37.64
2023-04-24T13:32:28.742Z,36.45
2023-04-24T13:34:55.587Z,35.36
2023-04-24T13:37:23.533Z,36.36
2023-04-24T13:39:50.845Z,36.55
2023-04-24T13:42:19.234Z,36.02
2023-04-24T13:44:46.165Z,35.42
2023-04-24T13:47:13.418Z,34.01
2023-04-24T13:49:40.097Z,34.76
2023-04-24T13:52:06.748Z,34.97
2023-04-24T13:54:33.944Z,35.67
2023-04-24T13:57:01.595Z,37.53
2023-04-24T13:59:28.389Z,37.84
2023-04-24T14:01:55.786Z,36.53
2023-04-24T14:04:22.840Z,35.79
2023-04-24T14:06:49.704Z,35.48
2023-04-24T14:09:16.437Z,35.84
2023-04-24T14:11:43.192Z,35.04
2023-04-24T14:14:09.924Z,35.18
2023-04-24T14:16:36.794Z,34.31
2023-04-24T14:19:03.799Z,35.19
2023-04-24T14:21:31.212Z,34.66
2023-04-24T14:23:57.821Z,34.90
2023-04-24T14:26:25.739Z,36.17
2023-04-24T14:29:00.793Z,36.52
2023-04-24T14:31:34.314Z,36.16
2023-04-24T14:34:01.279Z,36.14
2023-04-24T14:36:31.679Z,36.34
2023-04-24T14:38:58.595Z,40.10
2023-04-24T14:41:25.240Z,42.30
2023-04-24T14:43:52.511Z,44.04
2023-04-24T14:46:19.313Z,45.72
2023-04-24T14:48:46.088Z,46.16
2023-04-24T14:51:13.193Z,48.65
2023-04-24T14:53:39.837Z,50.21
2023-04-24T14:56:06.793Z,52.31
2023-04-24T14:58:33.889Z,51.52
2023-04-24T15:01:00.470Z,51.42
2023-04-24T15:03:28.113Z,51.53
2023-04-24T15:05:55.060Z,52.59
2023-04-24T15:08:21.852Z,52.97
2023-04-24T15:10:49.210Z,53.09
2023-04-24T15:13:15.917Z,53.65
2023-04-24T15:15:42.649Z,56.14
2023-04-24T15:18:12.557Z,57.81
2023-04-24T15:20:42.901Z,56.82
2023-04-24T15:23:10.599Z,57.19
2023-04-24T15:25:38.091Z,61.55
2023-04-24T15:28:05.801Z,64.52
2023-04-24T15:30:32.991Z,66.55
2023-04-24T15:33:01.200Z,70.52
2023-04-24T15:35:27.855Z,75.51
2023-04-24T15:37:54.529Z,77.06
2023-04-24T15:40:21.664Z,78.31
2023-04-24T15:42:49.091Z,77.58
2023-04-24T15:45:16.146Z,78.88
2023-04-24T15:47:42.941Z,73.79
2023-04-24T15:50:12.756Z,76.21
2023-04-24T15:52:40.878Z,81.00
2023-04-24T15:55:07.642Z,88.65
2023-04-24T15:57:34.364Z,95.87
2023-04-24T16:00:01.216Z,100.00
2023-04-24T16:02:28.297Z,100.00
2023-04-24T16:04:55.259Z,100.00
2023-04-24T16:07:22.230Z,100.00
2023-04-24T16:09:51.831Z,100.00
2023-04-24T16:12:19.582Z,100.00
2023-04-24T16:14:46.829Z,100.00
2023-04-24T16:17:14.131Z,100.00
2023-04-24T16:19:41.071Z,100.00
2023-04-24T16:22:08.121Z,100.00
2023-04-24T16:24:35.752Z,100.00
2023-04-24T16:27:03.433Z,100.00
2023-04-24T16:29:31.471Z,100.00
2023-04-24T16:31:58.521Z,100.00
2023-04-24T16:34:25.639Z,100.00
2023-04-24T16:36:52.711Z,100.00
2023-04-24T16:39:19.754Z,100.00
2023-04-24T16:41:46.713Z,100.00
2023-04-24T16:44:14.018Z,100.00
2023-04-24T16:46:41.265Z,100.00
2023-04-24T16:49:08.467Z,100.00
2023-04-24T16:51:35.793Z,100.00
2023-04-24T16:54:03.155Z,100.00
2023-04-24T16:56:30.284Z,100.00
2023-04-24T16:58:57.414Z,100.00
2023-04-24T17:01:26.051Z,100.00
2023-04-24T17:03:53.450Z,100.00
2023-04-24T17:06:20.725Z,100.00
2023-04-24T17:08:47.995Z,100.00
2023-04-24T17:11:15.357Z,100.00
2023-04-24T17:13:42.498Z,100.00
2023-04-24T17:16:09.675Z,100.00
2023-04-24T17:18:36.822Z,100.00
2023-04-24T17:21:04.185Z,100.00
2023-04-24T17:23:31.460Z,100.00
2023-04-24T17:25:58.727Z,100.00
2023-04-24T17:28:29.428Z,100.00
2023-04-24T17:31:00.321Z,100.00
2023-04-24T17:33:28.826Z,100.00
2023-04-24T17:36:02.005Z,100.00
2023-04-24T17:38:30.100Z,100.00
2023-04-24T17:41:00.453Z,100.00
2023-04-24T17:43:27.373Z,100.00
2023-04-24T17:45:59.472Z,100.00
2023-04-24T17:48:26.907Z,100.00
2023-04-24T17:50:56.411Z,100.00
2023-04-24T17:53:23.139Z,100.00
2023-04-24T17:55:50.026Z,100.00
2023-04-24T17:58:19.384Z,100.00
2023-04-24T18:00:46.488Z,100.00
2023-04-24T18:03:13.277Z,100.00
2023-04-24T18:05:40.247Z,100.00
2023-04-24T18:08:07.770Z,100.00
2023-04-24T18:10:37.475Z,100.00
2023-04-24T18:13:05.478Z,100.00
2023-04-24T18:15:32.922Z,100.00
2023-04-24T18:17:59.956Z,100.00
2023-04-24T18:20:27.389Z,100.00
2023-04-24T18:22:54.603Z,100.00
2023-04-24T18:25:26.753Z,100.00
2023-04-24T18:27:59.379Z,100.00
2023-04-24T18:30:32.648Z,100.00
2023-04-24T18:33:00.082Z,100.00
2023-04-24T18:35:29.537Z,100.00
2023-04-24T18:37:56.401Z,100.00
2023-04-24T18:40:23.134Z,100.00
2023-04-24T18:42:50.512Z,100.00
2023-04-24T18:45:17.353Z,100.00
2023-04-24T18:47:46.639Z,100.00
2023-04-24T18:50:14.886Z,100.00
2023-04-24T18:52:47.946Z,100.00
2023-04-24T18:55:14.978Z,100.00
2023-04-24T18:57:41.949Z,100.00
2023-04-24T19:00:09.387Z,100.00
2023-04-24T19:02:36.861Z,100.00
2023-04-24T19:05:04.239Z,100.00
2023-04-24T19:07:31.181Z,100.00
2023-04-24T19:09:58.148Z,100.00
2023-04-24T19:12:25.951Z,100.00
2023-04-24T19:14:58.410Z,100.00
2023-04-24T19:17:28.272Z,100.00
2023-04-24T19:19:55.711Z,100.00
2023-04-24T19:22:22.533Z,100.00
2023-04-24T19:24:49.880Z,100.00
2023-04-24T19:27:23.498Z,100.00
2023-04-24T19:29:52.278Z,100.00
2023-04-24T19:32:19.158Z,100.00
2023-04-24T19:34:46.126Z,100.00
2023-04-24T19:37:13.679Z,100.00
2023-04-24T19:39:41.719Z,100.00
2023-04-24T19:42:08.686Z,100.00
2023-04-24T19:44:35.787Z,100.00
2023-04-24T19:47:05.213Z,100.00
2023-04-24T19:49:32.176Z,100.00
2023-04-24T19:52:01.687Z,100.00
2023-04-24T19:54:28.961Z,100.00
2023-04-24T19:56:56.196Z,100.00
2023-04-24T19:59:23.340Z,100.00
2023-04-24T20:01:51.713Z,100.00
2023-04-24T20:04:21.949Z,100.00
2023-04-24T20:06:49.997Z,100.00
2023-04-24T20:09:17.023Z,100.00
2023-04-24T20:11:45.126Z,100.00
2023-04-24T20:14:12.185Z,100.00
2023-04-24T20:16:39.352Z,100.00
2023-04-24T20:19:06.267Z,100.00
2023-04-24T20:21:33.238Z,100.00
2023-04-24T20:24:00.306Z,100.00
2023-04-24T20:26:27.170Z,100.00
2023-04-24T20:28:53.944Z,100.00
2023-04-24T20:31:20.831Z,100.00
2023-04-24T20:33:47.569Z,100.00
2023-04-24T20:36:14.259Z,100.00
2023-04-24T20:38:41.109Z,100.00
2023-04-24T20:41:08.976Z,100.00
2023-04-24T20:43:36.088Z,100.00
2023-04-24T20:46:02.961Z,100.00
2023-04-24T20:48:29.845Z,100.00
2023-04-24T20:50:56.606Z,100.00
2023-04-24T20:53:23.485Z,100.00
2023-04-24T20:55:50.504Z,100.00
2023-04-24T20:58:18.671Z,100.00
2023-04-24T21:00:45.482Z,100.00
2023-04-24T21:03:12.719Z,100.00
2023-04-24T21:05:39.392Z,100.00
2023-04-24T21:08:06.432Z,100.00
2023-04-24T21:10:33.182Z,100.00
2023-04-24T21:12:59.844Z,100.00
2023-04-24T21:15:26.566Z,100.00
2023-04-24T21:17:53.485Z,100.00
2023-04-24T21:20:20.338Z,100.00
2023-04-24T21:22:47.048Z,100.00
2023-04-24T21:25:13.760Z,100.00
2023-04-24T21:27:41.370Z,100.00
2023-04-24T21:30:08.562Z,100.00
2023-04-24T21:32:35.245Z,100.00
2023-04-24T21:35:02.029Z,100.00
2023-04-24T21:37:28.762Z,100.00
2023-04-24T21:39:55.451Z,100.00
2023-04-24T21:42:22.283Z,100.00
2023-04-24T21:44:49.055Z,100.00
2023-04-24T21:47:15.894Z,100.00
2023-04-24T21:49:42.992Z,100.00
2023-04-24T21:52:09.610Z,100.00
2023-04-24T21:54:36.192Z,100.00
2023-04-24T21:57:03.090Z,100.00
2023-04-24T21:59:30.283Z,100.00
2023-04-24T22:01:57.017Z,100.00
2023-04-24T22:04:23.897Z,100.00
2023-04-24T22:06:53.340Z,100.00
2023-04-24T22:09:19.991Z,100.00
2023-04-24T22:11:46.667Z,100.00
2023-04-24T22:14:13.329Z,100.00
2023-04-24T22:16:41.761Z,100.00
2023-04-24T22:19:08.789Z,100.00
2023-04-24T22:21:35.666Z,100.00
2023-04-24T22:24:02.498Z,100.00
2023-04-24T22:26:29.097Z,100.00
2023-04-24T22:28:55.731Z,100.00
2023-04-24T22:31:23.426Z,100.00
2023-04-24T22:33:51.745Z,100.00
2023-04-24T22:36:18.621Z,100.00
2023-04-24T22:38:45.577Z,100.00
2023-04-24T22:41:12.502Z,100.00
2023-04-24T22:43:39.554Z,100.00
2023-04-24T22:46:06.271Z,100.00
2023-04-24T22:48:34.699Z,100.00
2023-04-24T22:51:01.680Z,100.00
2023-04-24T22:53:29.052Z,100.00
2023-04-24T22:55:58.924Z,100.00
2023-04-24T22:58:26.093Z,100.00
2023-04-24T23:00:52.868Z,100.00
2023-04-24T23:03:19.978Z,100.00
2023-04-24T23:05:47.013Z,100.00
2023-04-24T23:08:13.679Z,100.00
2023-04-24T23:10:40.566Z,100.00
2023-04-24T23:13:07.391Z,100.00
2023-04-24T23:15:34.807Z,100.00
2023-04-24T23:18:01.832Z,100.00
2023-04-24T23:20:28.913Z,100.00
2023-04-24T23:22:55.618Z,100.00
2023-04-24T23:25:22.235Z,100.00
2023-04-24T23:27:49.295Z,100.00
2023-04-24T23:30:16.513Z,100.00
2023-04-24T23:32:44.452Z,100.00
2023-04-24T23:35:11.753Z,100.00
2023-04-24T23:37:38.817Z,100.00
2023-04-24T23:40:12.389Z,100.00
2023-04-24T23:42:39.097Z,100.00
2023-04-24T23:45:06.218Z,100.00
2023-04-24T23:47:33.003Z,100.00
2023-04-24T23:49:59.730Z,100.00
2023-04-24T23:52:26.414Z,100.00
2023-04-24T23:54:53.216Z,100.00
2023-04-24T23:57:20.029Z,100.00
2023-04-24T23:59:46.749Z,100.00
